Terminal Aerodrome Forecast
Issued by NWS

Home | Current Version | Previous Version | Text Only | Print | Product List | Glossary On
Versions: 1 2 3 4 5 6 7 8 9 10 11 12 13 14 15 16 17
000
FTUS43 KIWX 260500 RRA
TAFSBN
TAF
KSBN 260542Z 2606/2706 20010KT P6SM BKN250
     FM260900 20008KT P6SM BKN020
     FM261400 18012KT P6SM BKN040
     FM261900 19016G24KT P6SM BKN040
      TEMPO 2619/2622 4SM -TSRA BKN025CB=

USA.gov is the U.S. government's official web portal to all federal, state and local government web resources and services.